sensor_id;sensor_type;location;lat;lon;timestamp;pressure;altitude;pressure_sealevel;temperature
19666;BMP180;9980;51.020;7.772;2023-10-31T00:01:12;95617.00;;;16.40
19666;BMP180;9980;51.020;7.772;2023-10-31T00:03:39;95620.00;;;16.40
19666;BMP180;9980;51.020;7.772;2023-10-31T00:06:07;95628.00;;;16.30
19666;BMP180;9980;51.020;7.772;2023-10-31T00:08:34;95623.00;;;16.30
19666;BMP180;9980;51.020;7.772;2023-10-31T00:11:00;95631.00;;;16.20
19666;BMP180;9980;51.020;7.772;2023-10-31T00:13:27;95624.00;;;16.20
19666;BMP180;9980;51.020;7.772;2023-10-31T00:15:54;95633.00;;;16.10
19666;BMP180;9980;51.020;7.772;2023-10-31T00:18:21;95635.00;;;16.10
19666;BMP180;9980;51.020;7.772;2023-10-31T00:20:48;95618.00;;;16.00
19666;BMP180;9980;51.020;7.772;2023-10-31T00:23:15;95630.00;;;15.90
19666;BMP180;9980;51.020;7.772;2023-10-31T00:25:42;95630.00;;;15.90
19666;BMP180;9980;51.020;7.772;2023-10-31T00:28:09;95628.00;;;15.80
19666;BMP180;9980;51.020;7.772;2023-10-31T00:30:37;95637.00;;;15.80
19666;BMP180;9980;51.020;7.772;2023-10-31T00:33:04;95660.00;;;15.70
19666;BMP180;9980;51.020;7.772;2023-10-31T00:35:31;95661.00;;;15.70
19666;BMP180;9980;51.020;7.772;2023-10-31T00:37:58;95665.00;;;15.70
19666;BMP180;9980;51.020;7.772;2023-10-31T00:40:25;95670.00;;;15.60
19666;BMP180;9980;51.020;7.772;2023-10-31T00:42:51;95682.00;;;15.60
19666;BMP180;9980;51.020;7.772;2023-10-31T00:45:18;95664.00;;;15.60
19666;BMP180;9980;51.020;7.772;2023-10-31T00:47:45;95672.00;;;15.60
19666;BMP180;9980;51.020;7.772;2023-10-31T00:50:12;95673.00;;;15.50
19666;BMP180;9980;51.020;7.772;2023-10-31T00:52:39;95680.00;;;15.50
19666;BMP180;9980;51.020;7.772;2023-10-31T00:55:07;95679.00;;;15.50
19666;BMP180;9980;51.020;7.772;2023-10-31T00:57:34;95674.00;;;15.40
19666;BMP180;9980;51.020;7.772;2023-10-31T01:00:00;95672.00;;;15.40
19666;BMP180;9980;51.020;7.772;2023-10-31T01:02:27;95677.00;;;15.30
19666;BMP180;9980;51.020;7.772;2023-10-31T01:04:54;95663.00;;;15.30
19666;BMP180;9980;51.020;7.772;2023-10-31T01:07:21;95687.00;;;15.30
19666;BMP180;9980;51.020;7.772;2023-10-31T01:09:48;95678.00;;;15.30
19666;BMP180;9980;51.020;7.772;2023-10-31T01:12:15;95684.00;;;15.30
19666;BMP180;9980;51.020;7.772;2023-10-31T01:14:42;95683.00;;;15.30
19666;BMP180;9980;51.020;7.772;2023-10-31T01:17:09;95674.00;;;15.20
19666;BMP180;9980;51.020;7.772;2023-10-31T01:19:36;95667.00;;;15.20
19666;BMP180;9980;51.020;7.772;2023-10-31T01:22:03;95680.00;;;15.20
19666;BMP180;9980;51.020;7.772;2023-10-31T01:24:30;95673.00;;;15.20
19666;BMP180;9980;51.020;7.772;2023-10-31T01:26:57;95671.00;;;15.20
19666;BMP180;9980;51.020;7.772;2023-10-31T01:29:23;95678.00;;;15.20
19666;BMP180;9980;51.020;7.772;2023-10-31T01:31:50;95681.00;;;15.20
19666;BMP180;9980;51.020;7.772;2023-10-31T01:34:27;95678.00;;;15.20
19666;BMP180;9980;51.020;7.772;2023-10-31T01:36:54;95685.00;;;15.20
19666;BMP180;9980;51.020;7.772;2023-10-31T01:39:21;95689.00;;;15.20
19666;BMP180;9980;51.020;7.772;2023-10-31T01:41:48;95693.00;;;15.10
19666;BMP180;9980;51.020;7.772;2023-10-31T01:44:15;95707.00;;;15.10
19666;BMP180;9980;51.020;7.772;2023-10-31T01:46:42;95704.00;;;15.10
19666;BMP180;9980;51.020;7.772;2023-10-31T01:49:09;95700.00;;;15.10
19666;BMP180;9980;51.020;7.772;2023-10-31T01:51:36;95696.00;;;15.10
19666;BMP180;9980;51.020;7.772;2023-10-31T01:54:04;95709.00;;;15.10
19666;BMP180;9980;51.020;7.772;2023-10-31T01:56:31;95718.00;;;15.00
19666;BMP180;9980;51.020;7.772;2023-10-31T01:58:58;95715.00;;;15.00
19666;BMP180;9980;51.020;7.772;2023-10-31T02:01:25;95709.00;;;15.00
19666;BMP180;9980;51.020;7.772;2023-10-31T02:03:53;95709.00;;;15.00
19666;BMP180;9980;51.020;7.772;2023-10-31T02:06:20;95729.00;;;15.00
19666;BMP180;9980;51.020;7.772;2023-10-31T02:08:48;95719.00;;;15.00
19666;BMP180;9980;51.020;7.772;2023-10-31T02:11:15;95725.00;;;15.00
19666;BMP180;9980;51.020;7.772;2023-10-31T02:13:42;95733.00;;;15.00
19666;BMP180;9980;51.020;7.772;2023-10-31T02:16:09;95707.00;;;15.00
19666;BMP180;9980;51.020;7.772;2023-10-31T02:18:36;95729.00;;;14.90
19666;BMP180;9980;51.020;7.772;2023-10-31T02:21:04;95725.00;;;14.90
19666;BMP180;9980;51.020;7.772;2023-10-31T02:23:31;95730.00;;;14.90
19666;BMP180;9980;51.020;7.772;2023-10-31T02:25:57;95738.00;;;14.90
19666;BMP180;9980;51.020;7.772;2023-10-31T02:28:25;95722.00;;;14.90
19666;BMP180;9980;51.020;7.772;2023-10-31T02:30:55;95739.00;;;14.80
19666;BMP180;9980;51.020;7.772;2023-10-31T02:33:21;95737.00;;;14.80
19666;BMP180;9980;51.020;7.772;2023-10-31T02:35:48;95750.00;;;14.80
19666;BMP180;9980;51.020;7.772;2023-10-31T02:38:15;95751.00;;;14.80
19666;BMP180;9980;51.020;7.772;2023-10-31T02:40:42;95750.00;;;14.70
19666;BMP180;9980;51.020;7.772;2023-10-31T02:43:09;95748.00;;;14.70
19666;BMP180;9980;51.020;7.772;2023-10-31T02:45:36;95733.00;;;14.70
19666;BMP180;9980;51.020;7.772;2023-10-31T02:48:03;95738.00;;;14.70
19666;BMP180;9980;51.020;7.772;2023-10-31T02:50:30;95743.00;;;14.70
19666;BMP180;9980;51.020;7.772;2023-10-31T02:52:58;95748.00;;;14.70
19666;BMP180;9980;51.020;7.772;2023-10-31T02:55:24;95747.00;;;14.60
19666;BMP180;9980;51.020;7.772;2023-10-31T02:57:51;95749.00;;;14.60
19666;BMP180;9980;51.020;7.772;2023-10-31T03:00:19;95762.00;;;14.60
19666;BMP180;9980;51.020;7.772;2023-10-31T03:02:46;95752.00;;;14.60
19666;BMP180;9980;51.020;7.772;2023-10-31T03:05:13;95755.00;;;14.60
19666;BMP180;9980;51.020;7.772;2023-10-31T03:07:40;95760.00;;;14.60
19666;BMP180;9980;51.020;7.772;2023-10-31T03:10:07;95757.00;;;14.50
19666;BMP180;9980;51.020;7.772;2023-10-31T03:12:34;95744.00;;;14.60
19666;BMP180;9980;51.020;7.772;2023-10-31T03:15:05;95746.00;;;14.50
19666;BMP180;9980;51.020;7.772;2023-10-31T03:17:32;95755.00;;;14.50
19666;BMP180;9980;51.020;7.772;2023-10-31T03:19:59;95760.00;;;14.50
19666;BMP180;9980;51.020;7.772;2023-10-31T03:22:26;95755.00;;;14.50
19666;BMP180;9980;51.020;7.772;2023-10-31T03:24:53;95754.00;;;14.50
19666;BMP180;9980;51.020;7.772;2023-10-31T03:27:20;95761.00;;;14.50
19666;BMP180;9980;51.020;7.772;2023-10-31T03:29:47;95763.00;;;14.50
19666;BMP180;9980;51.020;7.772;2023-10-31T03:32:15;95757.00;;;14.50
19666;BMP180;9980;51.020;7.772;2023-10-31T03:34:42;95760.00;;;14.50
19666;BMP180;9980;51.020;7.772;2023-10-31T03:37:09;95768.00;;;14.50
19666;BMP180;9980;51.020;7.772;2023-10-31T03:39:36;95766.00;;;14.50
19666;BMP180;9980;51.020;7.772;2023-10-31T03:42:03;95762.00;;;14.40
19666;BMP180;9980;51.020;7.772;2023-10-31T03:44:31;95766.00;;;14.40
19666;BMP180;9980;51.020;7.772;2023-10-31T03:46:58;95767.00;;;14.40
19666;BMP180;9980;51.020;7.772;2023-10-31T03:49:25;95774.00;;;14.40
19666;BMP180;9980;51.020;7.772;2023-10-31T03:51:52;95774.00;;;14.40
19666;BMP180;9980;51.020;7.772;2023-10-31T03:54:19;95785.00;;;14.30
19666;BMP180;9980;51.020;7.772;2023-10-31T03:56:47;95783.00;;;14.30
19666;BMP180;9980;51.020;7.772;2023-10-31T03:59:16;95799.00;;;14.40
19666;BMP180;9980;51.020;7.772;2023-10-31T04:01:43;95790.00;;;14.30
19666;BMP180;9980;51.020;7.772;2023-10-31T04:04:10;95778.00;;;14.30
19666;BMP180;9980;51.020;7.772;2023-10-31T04:06:37;95784.00;;;14.30
19666;BMP180;9980;51.020;7.772;2023-10-31T04:09:07;95779.00;;;14.30
19666;BMP180;9980;51.020;7.772;2023-10-31T04:11:34;95794.00;;;14.30
19666;BMP180;9980;51.020;7.772;2023-10-31T04:14:01;95789.00;;;14.30
19666;BMP180;9980;51.020;7.772;2023-10-31T04:16:28;95795.00;;;14.30
19666;BMP180;9980;51.020;7.772;2023-10-31T04:18:55;95789.00;;;14.30
19666;BMP180;9980;51.020;7.772;2023-10-31T04:21:22;95796.00;;;14.30
19666;BMP180;9980;51.020;7.772;2023-10-31T04:23:49;95805.00;;;14.30
19666;BMP180;9980;51.020;7.772;2023-10-31T04:26:16;95811.00;;;14.30
19666;BMP180;9980;51.020;7.772;2023-10-31T04:28:44;95822.00;;;14.30
19666;BMP180;9980;51.020;7.772;2023-10-31T04:31:10;95818.00;;;14.30
19666;BMP180;9980;51.020;7.772;2023-10-31T04:33:37;95805.00;;;14.30
19666;BMP180;9980;51.020;7.772;2023-10-31T04:36:05;95809.00;;;14.30
19666;BMP180;9980;51.020;7.772;2023-10-31T04:38:32;95821.00;;;14.30
19666;BMP180;9980;51.020;7.772;2023-10-31T04:40:59;95817.00;;;14.30
19666;BMP180;9980;51.020;7.772;2023-10-31T04:43:26;95815.00;;;14.30
19666;BMP180;9980;51.020;7.772;2023-10-31T04:45:53;95829.00;;;14.20
19666;BMP180;9980;51.020;7.772;2023-10-31T04:48:20;95830.00;;;14.20
19666;BMP180;9980;51.020;7.772;2023-10-31T04:50:47;95836.00;;;14.20
19666;BMP180;9980;51.020;7.772;2023-10-31T04:53:14;95822.00;;;14.20
19666;BMP180;9980;51.020;7.772;2023-10-31T04:55:41;95831.00;;;14.20
19666;BMP180;9980;51.020;7.772;2023-10-31T04:58:07;95835.00;;;14.10
19666;BMP180;9980;51.020;7.772;2023-10-31T05:00:35;95831.00;;;14.10
19666;BMP180;9980;51.020;7.772;2023-10-31T05:03:02;95820.00;;;14.10
19666;BMP180;9980;51.020;7.772;2023-10-31T05:05:29;95822.00;;;14.10
19666;BMP180;9980;51.020;7.772;2023-10-31T05:07:56;95825.00;;;14.10
19666;BMP180;9980;51.020;7.772;2023-10-31T05:10:24;95828.00;;;14.10
19666;BMP180;9980;51.020;7.772;2023-10-31T05:12:51;95839.00;;;14.10
19666;BMP180;9980;51.020;7.772;2023-10-31T05:15:18;95821.00;;;14.10
19666;BMP180;9980;51.020;7.772;2023-10-31T05:17:45;95833.00;;;14.10
19666;BMP180;9980;51.020;7.772;2023-10-31T05:20:13;95829.00;;;14.10
19666;BMP180;9980;51.020;7.772;2023-10-31T05:22:41;95832.00;;;14.10
19666;BMP180;9980;51.020;7.772;2023-10-31T05:25:08;95839.00;;;14.00
19666;BMP180;9980;51.020;7.772;2023-10-31T05:27:35;95839.00;;;14.00
19666;BMP180;9980;51.020;7.772;2023-10-31T05:30:02;95856.00;;;14.00
19666;BMP180;9980;51.020;7.772;2023-10-31T05:32:29;95848.00;;;14.00
19666;BMP180;9980;51.020;7.772;2023-10-31T05:34:56;95847.00;;;14.00
19666;BMP180;9980;51.020;7.772;2023-10-31T05:37:26;95860.00;;;14.00
19666;BMP180;9980;51.020;7.772;2023-10-31T05:39:53;95851.00;;;14.00
19666;BMP180;9980;51.020;7.772;2023-10-31T05:42:20;95844.00;;;14.00
19666;BMP180;9980;51.020;7.772;2023-10-31T05:44:47;95870.00;;;14.00
19666;BMP180;9980;51.020;7.772;2023-10-31T05:47:14;95871.00;;;14.00
19666;BMP180;9980;51.020;7.772;2023-10-31T05:49:43;95877.00;;;14.00
19666;BMP180;9980;51.020;7.772;2023-10-31T05:52:11;95879.00;;;14.00
19666;BMP180;9980;51.020;7.772;2023-10-31T05:54:38;95887.00;;;14.00
19666;BMP180;9980;51.020;7.772;2023-10-31T05:57:05;95892.00;;;14.00
19666;BMP180;9980;51.020;7.772;2023-10-31T05:59:32;95881.00;;;13.90
19666;BMP180;9980;51.020;7.772;2023-10-31T06:01:59;95898.00;;;13.90
19666;BMP180;9980;51.020;7.772;2023-10-31T06:04:26;95901.00;;;13.90
19666;BMP180;9980;51.020;7.772;2023-10-31T06:06:53;95895.00;;;13.90
19666;BMP180;9980;51.020;7.772;2023-10-31T06:09:20;95891.00;;;13.90
19666;BMP180;9980;51.020;7.772;2023-10-31T06:11:47;95910.00;;;13.90
19666;BMP180;9980;51.020;7.772;2023-10-31T06:14:14;95908.00;;;13.90
19666;BMP180;9980;51.020;7.772;2023-10-31T06:16:42;95914.00;;;13.90
19666;BMP180;9980;51.020;7.772;2023-10-31T06:19:10;95914.00;;;13.90
19666;BMP180;9980;51.020;7.772;2023-10-31T06:21:36;95912.00;;;13.90
19666;BMP180;9980;51.020;7.772;2023-10-31T06:24:04;95911.00;;;13.90
19666;BMP180;9980;51.020;7.772;2023-10-31T06:26:31;95920.00;;;13.90
19666;BMP180;9980;51.020;7.772;2023-10-31T06:28:58;95917.00;;;13.90
19666;BMP180;9980;51.020;7.772;2023-10-31T06:31:45;95916.00;;;13.90
19666;BMP180;9980;51.020;7.772;2023-10-31T06:34:12;95915.00;;;13.90
19666;BMP180;9980;51.020;7.772;2023-10-31T06:36:39;95916.00;;;13.90
19666;BMP180;9980;51.020;7.772;2023-10-31T06:39:06;95922.00;;;13.90
19666;BMP180;9980;51.020;7.772;2023-10-31T06:41:33;95917.00;;;13.90
19666;BMP180;9980;51.020;7.772;2023-10-31T06:44:00;95928.00;;;13.90
19666;BMP180;9980;51.020;7.772;2023-10-31T06:46:27;95925.00;;;13.90
19666;BMP180;9980;51.020;7.772;2023-10-31T06:48:54;95928.00;;;13.90
19666;BMP180;9980;51.020;7.772;2023-10-31T06:51:21;95919.00;;;13.90
19666;BMP180;9980;51.020;7.772;2023-10-31T06:53:48;95932.00;;;13.90
19666;BMP180;9980;51.020;7.772;2023-10-31T06:56:14;95942.00;;;13.90
19666;BMP180;9980;51.020;7.772;2023-10-31T06:58:41;95939.00;;;13.90
19666;BMP180;9980;51.020;7.772;2023-10-31T07:01:08;95936.00;;;13.90
19666;BMP180;9980;51.020;7.772;2023-10-31T07:03:36;95943.00;;;13.90
19666;BMP180;9980;51.020;7.772;2023-10-31T07:06:03;95948.00;;;13.90
19666;BMP180;9980;51.020;7.772;2023-10-31T07:08:30;95951.00;;;13.90
19666;BMP180;9980;51.020;7.772;2023-10-31T07:10:57;95950.00;;;13.90
19666;BMP180;9980;51.020;7.772;2023-10-31T07:13:27;95956.00;;;13.90
19666;BMP180;9980;51.020;7.772;2023-10-31T07:15:55;95955.00;;;13.90
19666;BMP180;9980;51.020;7.772;2023-10-31T07:18:21;95975.00;;;13.90
19666;BMP180;9980;51.020;7.772;2023-10-31T07:20:48;95965.00;;;13.90
19666;BMP180;9980;51.020;7.772;2023-10-31T07:23:21;95980.00;;;13.80
19666;BMP180;9980;51.020;7.772;2023-10-31T07:25:49;95974.00;;;13.90
19666;BMP180;9980;51.020;7.772;2023-10-31T07:28:16;95973.00;;;13.80
19666;BMP180;9980;51.020;7.772;2023-10-31T07:30:44;95976.00;;;13.80
19666;BMP180;9980;51.020;7.772;2023-10-31T07:33:10;95981.00;;;13.80
19666;BMP180;9980;51.020;7.772;2023-10-31T07:35:37;96001.00;;;13.80
19666;BMP180;9980;51.020;7.772;2023-10-31T07:38:04;95991.00;;;13.80
19666;BMP180;9980;51.020;7.772;2023-10-31T07:40:32;96002.00;;;13.80
19666;BMP180;9980;51.020;7.772;2023-10-31T07:42:59;96001.00;;;13.80
19666;BMP180;9980;51.020;7.772;2023-10-31T07:45:25;96016.00;;;13.80
19666;BMP180;9980;51.020;7.772;2023-10-31T07:47:52;96002.00;;;13.80
19666;BMP180;9980;51.020;7.772;2023-10-31T07:50:19;96001.00;;;13.80
19666;BMP180;9980;51.020;7.772;2023-10-31T07:52:46;96005.00;;;13.80
19666;BMP180;9980;51.020;7.772;2023-10-31T07:55:14;96006.00;;;13.80
19666;BMP180;9980;51.020;7.772;2023-10-31T07:57:41;96013.00;;;13.80
19666;BMP180;9980;51.020;7.772;2023-10-31T08:00:12;96005.00;;;13.80
19666;BMP180;9980;51.020;7.772;2023-10-31T08:02:39;96011.00;;;13.80
19666;BMP180;9980;51.020;7.772;2023-10-31T08:05:07;96024.00;;;13.90
19666;BMP180;9980;51.020;7.772;2023-10-31T08:07:35;96014.00;;;13.80
19666;BMP180;9980;51.020;7.772;2023-10-31T08:10:02;96031.00;;;13.90
19666;BMP180;9980;51.020;7.772;2023-10-31T08:12:30;96029.00;;;13.90
19666;BMP180;9980;51.020;7.772;2023-10-31T08:14:57;96033.00;;;13.90
19666;BMP180;9980;51.020;7.772;2023-10-31T08:17:25;96042.00;;;13.90
19666;BMP180;9980;51.020;7.772;2023-10-31T08:19:53;96047.00;;;13.90
19666;BMP180;9980;51.020;7.772;2023-10-31T08:22:20;96048.00;;;13.90
19666;BMP180;9980;51.020;7.772;2023-10-31T08:24:46;96040.00;;;13.90
19666;BMP180;9980;51.020;7.772;2023-10-31T08:27:13;96056.00;;;13.90
19666;BMP180;9980;51.020;7.772;2023-10-31T08:29:40;96041.00;;;13.90
19666;BMP180;9980;51.020;7.772;2023-10-31T08:32:08;96054.00;;;13.90
19666;BMP180;9980;51.020;7.772;2023-10-31T08:34:35;96052.00;;;13.90
19666;BMP180;9980;51.020;7.772;2023-10-31T08:37:02;96059.00;;;13.90
19666;BMP180;9980;51.020;7.772;2023-10-31T08:39:29;96065.00;;;13.90
19666;BMP180;9980;51.020;7.772;2023-10-31T08:41:57;96063.00;;;13.90
19666;BMP180;9980;51.020;7.772;2023-10-31T08:44:25;96076.00;;;13.90
19666;BMP180;9980;51.020;7.772;2023-10-31T08:46:52;96080.00;;;13.90
19666;BMP180;9980;51.020;7.772;2023-10-31T08:49:19;96094.00;;;14.00
19666;BMP180;9980;51.020;7.772;2023-10-31T08:51:46;96081.00;;;14.00
19666;BMP180;9980;51.020;7.772;2023-10-31T08:54:13;96098.00;;;14.00
19666;BMP180;9980;51.020;7.772;2023-10-31T08:56:40;96119.00;;;14.00
19666;BMP180;9980;51.020;7.772;2023-10-31T08:59:07;96105.00;;;14.00
19666;BMP180;9980;51.020;7.772;2023-10-31T09:01:34;96112.00;;;14.10
19666;BMP180;9980;51.020;7.772;2023-10-31T09:04:01;96122.00;;;14.10
19666;BMP180;9980;51.020;7.772;2023-10-31T09:06:28;96125.00;;;14.10
19666;BMP180;9980;51.020;7.772;2023-10-31T09:08:55;96132.00;;;14.00
19666;BMP180;9980;51.020;7.772;2023-10-31T09:11:22;96133.00;;;14.10
19666;BMP180;9980;51.020;7.772;2023-10-31T09:13:49;96138.00;;;14.10
19666;BMP180;9980;51.020;7.772;2023-10-31T09:16:16;96138.00;;;14.10
19666;BMP180;9980;51.020;7.772;2023-10-31T09:18:43;96155.00;;;14.10
19666;BMP180;9980;51.020;7.772;2023-10-31T09:21:10;96154.00;;;14.10
19666;BMP180;9980;51.020;7.772;2023-10-31T09:23:37;96158.00;;;14.00
19666;BMP180;9980;51.020;7.772;2023-10-31T09:26:04;96166.00;;;14.00
19666;BMP180;9980;51.020;7.772;2023-10-31T09:28:31;96161.00;;;14.00
19666;BMP180;9980;51.020;7.772;2023-10-31T09:30:58;96167.00;;;14.10
19666;BMP180;9980;51.020;7.772;2023-10-31T09:33:27;96162.00;;;14.10
19666;BMP180;9980;51.020;7.772;2023-10-31T09:35:54;96176.00;;;14.10
19666;BMP180;9980;51.020;7.772;2023-10-31T09:38:21;96175.00;;;14.10
19666;BMP180;9980;51.020;7.772;2023-10-31T09:40:48;96191.00;;;14.10
19666;BMP180;9980;51.020;7.772;2023-10-31T09:43:16;96175.00;;;14.10
19666;BMP180;9980;51.020;7.772;2023-10-31T09:45:43;96187.00;;;14.10
19666;BMP180;9980;51.020;7.772;2023-10-31T09:48:12;96179.00;;;14.10
19666;BMP180;9980;51.020;7.772;2023-10-31T09:50:41;96188.00;;;14.10
19666;BMP180;9980;51.020;7.772;2023-10-31T09:53:09;96195.00;;;14.20
19666;BMP180;9980;51.020;7.772;2023-10-31T09:55:38;96185.00;;;14.20
19666;BMP180;9980;51.020;7.772;2023-10-31T09:58:05;96199.00;;;14.30
19666;BMP180;9980;51.020;7.772;2023-10-31T10:00:32;96191.00;;;14.30
19666;BMP180;9980;51.020;7.772;2023-10-31T10:02:59;96199.00;;;14.40
19666;BMP180;9980;51.020;7.772;2023-10-31T10:05:27;96201.00;;;14.40
19666;BMP180;9980;51.020;7.772;2023-10-31T10:07:58;96198.00;;;14.50
19666;BMP180;9980;51.020;7.772;2023-10-31T10:10:25;96202.00;;;14.50
19666;BMP180;9980;51.020;7.772;2023-10-31T10:12:52;96203.00;;;14.50
19666;BMP180;9980;51.020;7.772;2023-10-31T10:15:19;96213.00;;;14.60
19666;BMP180;9980;51.020;7.772;2023-10-31T10:17:52;96204.00;;;14.60
19666;BMP180;9980;51.020;7.772;2023-10-31T10:20:20;96217.00;;;14.60
19666;BMP180;9980;51.020;7.772;2023-10-31T10:22:47;96220.00;;;14.70
19666;BMP180;9980;51.020;7.772;2023-10-31T10:25:17;96215.00;;;14.70
19666;BMP180;9980;51.020;7.772;2023-10-31T10:27:47;96219.00;;;14.70
19666;BMP180;9980;51.020;7.772;2023-10-31T10:30:15;96228.00;;;14.70
19666;BMP180;9980;51.020;7.772;2023-10-31T10:32:42;96233.00;;;14.80
19666;BMP180;9980;51.020;7.772;2023-10-31T10:35:09;96242.00;;;14.80
19666;BMP180;9980;51.020;7.772;2023-10-31T10:37:40;96249.00;;;14.80
19666;BMP180;9980;51.020;7.772;2023-10-31T10:40:08;96253.00;;;14.80
19666;BMP180;9980;51.020;7.772;2023-10-31T10:42:45;96238.00;;;14.80
19666;BMP180;9980;51.020;7.772;2023-10-31T10:45:16;96252.00;;;14.80
19666;BMP180;9980;51.020;7.772;2023-10-31T10:47:49;96245.00;;;14.80
19666;BMP180;9980;51.020;7.772;2023-10-31T10:50:19;96251.00;;;14.80
19666;BMP180;9980;51.020;7.772;2023-10-31T10:55:32;96255.00;;;14.80
19666;BMP180;9980;51.020;7.772;2023-10-31T10:58:29;96251.00;;;14.80
19666;BMP180;9980;51.020;7.772;2023-10-31T11:00:59;96260.00;;;14.80
19666;BMP180;9980;51.020;7.772;2023-10-31T11:03:29;96266.00;;;14.80
19666;BMP180;9980;51.020;7.772;2023-10-31T11:05:57;96250.00;;;14.90
19666;BMP180;9980;51.020;7.772;2023-10-31T11:08:25;96260.00;;;14.90
19666;BMP180;9980;51.020;7.772;2023-10-31T11:10:53;96259.00;;;15.00
19666;BMP180;9980;51.020;7.772;2023-10-31T11:13:22;96247.00;;;15.00
19666;BMP180;9980;51.020;7.772;2023-10-31T11:15:54;96248.00;;;15.00
19666;BMP180;9980;51.020;7.772;2023-10-31T11:18:24;96249.00;;;15.00
19666;BMP180;9980;51.020;7.772;2023-10-31T11:20:51;96242.00;;;15.00
19666;BMP180;9980;51.020;7.772;2023-10-31T11:23:18;96250.00;;;15.10
19666;BMP180;9980;51.020;7.772;2023-10-31T11:25:50;96242.00;;;15.10
19666;BMP180;9980;51.020;7.772;2023-10-31T11:28:20;96248.00;;;15.20
19666;BMP180;9980;51.020;7.772;2023-10-31T11:30:50;96243.00;;;15.20
19666;BMP180;9980;51.020;7.772;2023-10-31T11:33:21;96249.00;;;15.30
19666;BMP180;9980;51.020;7.772;2023-10-31T11:36:00;96244.00;;;15.30
19666;BMP180;9980;51.020;7.772;2023-10-31T11:38:34;96251.00;;;15.30
19666;BMP180;9980;51.020;7.772;2023-10-31T11:41:03;96252.00;;;15.40
19666;BMP180;9980;51.020;7.772;2023-10-31T11:46:24;96248.00;;;15.50
19666;BMP180;9980;51.020;7.772;2023-10-31T11:48:54;96256.00;;;15.50
19666;BMP180;9980;51.020;7.772;2023-10-31T11:51:24;96250.00;;;15.60
19666;BMP180;9980;51.020;7.772;2023-10-31T11:53:52;96239.00;;;15.70
19666;BMP180;9980;51.020;7.772;2023-10-31T11:56:21;96253.00;;;15.70
19666;BMP180;9980;51.020;7.772;2023-10-31T11:59:00;96246.00;;;15.80
19666;BMP180;9980;51.020;7.772;2023-10-31T12:01:27;96260.00;;;15.90
19666;BMP180;9980;51.020;7.772;2023-10-31T12:03:55;96260.00;;;15.90
19666;BMP180;9980;51.020;7.772;2023-10-31T12:06:22;96254.00;;;16.00
19666;BMP180;9980;51.020;7.772;2023-10-31T12:08:49;96260.00;;;16.00
19666;BMP180;9980;51.020;7.772;2023-10-31T12:11:21;96261.00;;;16.00
19666;BMP180;9980;51.020;7.772;2023-10-31T12:13:58;96273.00;;;16.00
19666;BMP180;9980;51.020;7.772;2023-10-31T12:16:34;96270.00;;;16.00
19666;BMP180;9980;51.020;7.772;2023-10-31T12:19:04;96281.00;;;16.10
19666;BMP180;9980;51.020;7.772;2023-10-31T12:21:45;96272.00;;;16.10
19666;BMP180;9980;51.020;7.772;2023-10-31T12:24:18;96292.00;;;16.10
19666;BMP180;9980;51.020;7.772;2023-10-31T12:26:46;96287.00;;;16.10
19666;BMP180;9980;51.020;7.772;2023-10-31T12:29:18;96281.00;;;16.10
19666;BMP180;9980;51.020;7.772;2023-10-31T12:31:53;96278.00;;;16.10
19666;BMP180;9980;51.020;7.772;2023-10-31T12:34:24;96283.00;;;16.10
19666;BMP180;9980;51.020;7.772;2023-10-31T12:36:53;96285.00;;;16.00
19666;BMP180;9980;51.020;7.772;2023-10-31T12:39:25;96273.00;;;16.10
19666;BMP180;9980;51.020;7.772;2023-10-31T12:41:54;96278.00;;;16.10
19666;BMP180;9980;51.020;7.772;2023-10-31T12:44:26;96265.00;;;16.10
19666;BMP180;9980;51.020;7.772;2023-10-31T12:46:55;96269.00;;;16.10
19666;BMP180;9980;51.020;7.772;2023-10-31T12:49:23;96270.00;;;16.20
19666;BMP180;9980;51.020;7.772;2023-10-31T12:54:29;96253.00;;;16.30
19666;BMP180;9980;51.020;7.772;2023-10-31T12:57:02;96252.00;;;16.30
19666;BMP180;9980;51.020;7.772;2023-10-31T12:59:35;96254.00;;;16.30
19666;BMP180;9980;51.020;7.772;2023-10-31T13:02:07;96259.00;;;16.40
19666;BMP180;9980;51.020;7.772;2023-10-31T13:04:35;96258.00;;;16.40
19666;BMP180;9980;51.020;7.772;2023-10-31T13:07:05;96263.00;;;16.40
19666;BMP180;9980;51.020;7.772;2023-10-31T13:09:35;96266.00;;;16.40
19666;BMP180;9980;51.020;7.772;2023-10-31T13:12:05;96277.00;;;16.30
19666;BMP180;9980;51.020;7.772;2023-10-31T13:14:33;96276.00;;;16.30
19666;BMP180;9980;51.020;7.772;2023-10-31T13:17:00;96278.00;;;16.30
19666;BMP180;9980;51.020;7.772;2023-10-31T13:19:29;96273.00;;;16.30
19666;BMP180;9980;51.020;7.772;2023-10-31T13:21:56;96282.00;;;16.30
19666;BMP180;9980;51.020;7.772;2023-10-31T13:24:23;96272.00;;;16.30
19666;BMP180;9980;51.020;7.772;2023-10-31T13:26:50;96285.00;;;16.30
19666;BMP180;9980;51.020;7.772;2023-10-31T13:29:20;96292.00;;;16.30
19666;BMP180;9980;51.020;7.772;2023-10-31T13:31:47;96288.00;;;16.30
19666;BMP180;9980;51.020;7.772;2023-10-31T13:34:14;96285.00;;;16.30
19666;BMP180;9980;51.020;7.772;2023-10-31T13:36:41;96282.00;;;16.30
19666;BMP180;9980;51.020;7.772;2023-10-31T13:39:09;96280.00;;;16.30
19666;BMP180;9980;51.020;7.772;2023-10-31T13:41:36;96276.00;;;16.30
19666;BMP180;9980;51.020;7.772;2023-10-31T13:44:04;96282.00;;;16.30
19666;BMP180;9980;51.020;7.772;2023-10-31T13:46:30;96273.00;;;16.30
19666;BMP180;9980;51.020;7.772;2023-10-31T13:48:57;96288.00;;;16.30
19666;BMP180;9980;51.020;7.772;2023-10-31T13:51:24;96292.00;;;16.30
19666;BMP180;9980;51.020;7.772;2023-10-31T13:53:51;96281.00;;;16.30
19666;BMP180;9980;51.020;7.772;2023-10-31T13:56:18;96291.00;;;16.30
19666;BMP180;9980;51.020;7.772;2023-10-31T13:58:45;96296.00;;;16.30
19666;BMP180;9980;51.020;7.772;2023-10-31T14:01:12;96299.00;;;16.30
19666;BMP180;9980;51.020;7.772;2023-10-31T14:03:39;96298.00;;;16.30
19666;BMP180;9980;51.020;7.772;2023-10-31T14:06:07;96300.00;;;16.30
19666;BMP180;9980;51.020;7.772;2023-10-31T14:08:34;96311.00;;;16.30
19666;BMP180;9980;51.020;7.772;2023-10-31T14:11:01;96310.00;;;16.30
19666;BMP180;9980;51.020;7.772;2023-10-31T14:13:29;96300.00;;;16.30
19666;BMP180;9980;51.020;7.772;2023-10-31T14:15:56;96303.00;;;16.30
19666;BMP180;9980;51.020;7.772;2023-10-31T14:18:23;96311.00;;;16.30
19666;BMP180;9980;51.020;7.772;2023-10-31T14:20:50;96301.00;;;16.30
19666;BMP180;9980;51.020;7.772;2023-10-31T14:23:18;96309.00;;;16.30
19666;BMP180;9980;51.020;7.772;2023-10-31T14:25:45;96307.00;;;16.30
19666;BMP180;9980;51.020;7.772;2023-10-31T14:28:12;96298.00;;;16.30
19666;BMP180;9980;51.020;7.772;2023-10-31T14:30:38;96319.00;;;16.40
19666;BMP180;9980;51.020;7.772;2023-10-31T14:33:05;96319.00;;;16.40